sensor_id;sensor_type;location;lat;lon;timestamp;P1;durP1;ratioP1;P2;durP2;ratioP2
47239;SDS011;32978;53.586;10.052;2024-03-25T00:00:26;5.47;;;3.85;;
47239;SDS011;32978;53.586;10.052;2024-03-25T00:05:22;4.72;;;4.03;;
47239;SDS011;32978;53.586;10.052;2024-03-25T00:10:20;8.75;;;4.13;;
47239;SDS011;32978;53.586;10.052;2024-03-25T00:15:16;7.97;;;3.90;;
47239;SDS011;32978;53.586;10.052;2024-03-25T00:20:11;9.85;;;4.82;;
47239;SDS011;32978;53.586;10.052;2024-03-25T00:25:08;8.32;;;3.85;;
47239;SDS011;32978;53.586;10.052;2024-03-25T00:30:04;8.00;;;4.25;;
47239;SDS011;32978;53.586;10.052;2024-03-25T00:35:00;7.57;;;4.20;;
47239;SDS011;32978;53.586;10.052;2024-03-25T00:39:55;9.52;;;4.10;;
47239;SDS011;32978;53.586;10.052;2024-03-25T00:44:51;5.90;;;3.85;;
47239;SDS011;32978;53.586;10.052;2024-03-25T00:49:46;8.15;;;4.10;;
47239;SDS011;32978;53.586;10.052;2024-03-25T00:54:42;10.20;;;3.88;;
47239;SDS011;32978;53.586;10.052;2024-03-25T00:59:38;10.15;;;3.65;;
47239;SDS011;32978;53.586;10.052;2024-03-25T01:04:34;13.18;;;4.72;;
47239;SDS011;32978;53.586;10.052;2024-03-25T01:09:29;11.02;;;6.22;;
47239;SDS011;32978;53.586;10.052;2024-03-25T01:14:25;9.15;;;3.65;;
47239;SDS011;32978;53.586;10.052;2024-03-25T01:19:21;9.55;;;3.63;;
47239;SDS011;32978;53.586;10.052;2024-03-25T01:24:17;12.32;;;3.38;;
47239;SDS011;32978;53.586;10.052;2024-03-25T01:29:12;11.77;;;3.67;;
47239;SDS011;32978;53.586;10.052;2024-03-25T01:34:08;12.73;;;3.63;;
47239;SDS011;32978;53.586;10.052;2024-03-25T01:39:03;11.32;;;3.50;;
47239;SDS011;32978;53.586;10.052;2024-03-25T01:44:00;16.25;;;4.00;;
47239;SDS011;32978;53.586;10.052;2024-03-25T01:48:57;14.20;;;3.92;;
47239;SDS011;32978;53.586;10.052;2024-03-25T01:53:54;11.68;;;4.38;;
47239;SDS011;32978;53.586;10.052;2024-03-25T01:58:50;10.30;;;3.75;;
47239;SDS011;32978;53.586;10.052;2024-03-25T02:03:46;7.32;;;4.35;;
47239;SDS011;32978;53.586;10.052;2024-03-25T02:08:43;11.32;;;4.53;;
47239;SDS011;32978;53.586;10.052;2024-03-25T02:13:38;9.65;;;4.47;;
47239;SDS011;32978;53.586;10.052;2024-03-25T02:18:34;13.30;;;4.57;;
47239;SDS011;32978;53.586;10.052;2024-03-25T02:23:30;10.30;;;4.05;;
47239;SDS011;32978;53.586;10.052;2024-03-25T02:28:27;7.38;;;3.20;;
47239;SDS011;32978;53.586;10.052;2024-03-25T02:33:22;8.98;;;4.10;;
47239;SDS011;32978;53.586;10.052;2024-03-25T02:38:18;7.82;;;3.47;;
47239;SDS011;32978;53.586;10.052;2024-03-25T02:43:15;5.30;;;3.15;;
47239;SDS011;32978;53.586;10.052;2024-03-25T02:48:11;8.55;;;4.63;;
47239;SDS011;32978;53.586;10.052;2024-03-25T02:53:07;6.28;;;3.60;;
47239;SDS011;32978;53.586;10.052;2024-03-25T02:58:02;6.40;;;3.28;;
47239;SDS011;32978;53.586;10.052;2024-03-25T03:02:58;8.68;;;3.67;;
47239;SDS011;32978;53.586;10.052;2024-03-25T03:07:53;15.63;;;4.10;;
47239;SDS011;32978;53.586;10.052;2024-03-25T03:12:49;9.05;;;3.80;;
47239;SDS011;32978;53.586;10.052;2024-03-25T03:17:44;8.32;;;3.78;;
47239;SDS011;32978;53.586;10.052;2024-03-25T03:22:40;7.28;;;3.40;;
47239;SDS011;32978;53.586;10.052;2024-03-25T03:27:36;8.90;;;4.07;;
47239;SDS011;32978;53.586;10.052;2024-03-25T03:32:31;9.50;;;3.55;;
47239;SDS011;32978;53.586;10.052;2024-03-25T03:37:27;10.48;;;3.53;;
47239;SDS011;32978;53.586;10.052;2024-03-25T03:42:22;9.82;;;3.88;;
47239;SDS011;32978;53.586;10.052;2024-03-25T03:47:18;8.27;;;3.35;;
47239;SDS011;32978;53.586;10.052;2024-03-25T03:52:13;8.27;;;3.95;;
47239;SDS011;32978;53.586;10.052;2024-03-25T03:57:09;7.18;;;3.20;;
47239;SDS011;32978;53.586;10.052;2024-03-25T04:02:04;10.13;;;3.67;;
47239;SDS011;32978;53.586;10.052;2024-03-25T04:07:01;11.00;;;3.95;;
47239;SDS011;32978;53.586;10.052;2024-03-25T04:11:57;5.75;;;4.03;;
47239;SDS011;32978;53.586;10.052;2024-03-25T04:16:52;5.57;;;4.40;;
47239;SDS011;32978;53.586;10.052;2024-03-25T04:21:48;6.75;;;3.53;;
47239;SDS011;32978;53.586;10.052;2024-03-25T04:26:44;8.38;;;3.65;;
47239;SDS011;32978;53.586;10.052;2024-03-25T04:31:40;8.77;;;4.10;;
47239;SDS011;32978;53.586;10.052;2024-03-25T04:36:35;9.75;;;4.60;;
47239;SDS011;32978;53.586;10.052;2024-03-25T04:41:31;7.10;;;4.40;;
47239;SDS011;32978;53.586;10.052;2024-03-25T04:46:26;5.60;;;4.97;;
47239;SDS011;32978;53.586;10.052;2024-03-25T04:51:22;7.28;;;4.50;;
47239;SDS011;32978;53.586;10.052;2024-03-25T04:56:17;7.22;;;4.85;;
47239;SDS011;32978;53.586;10.052;2024-03-25T05:01:13;9.85;;;5.03;;
47239;SDS011;32978;53.586;10.052;2024-03-25T05:06:09;10.13;;;4.70;;
47239;SDS011;32978;53.586;10.052;2024-03-25T05:11:06;4.88;;;4.32;;
47239;SDS011;32978;53.586;10.052;2024-03-25T05:16:02;6.15;;;4.68;;
47239;SDS011;32978;53.586;10.052;2024-03-25T05:20:57;6.07;;;4.38;;
47239;SDS011;32978;53.586;10.052;2024-03-25T05:25:53;6.28;;;5.68;;
47239;SDS011;32978;53.586;10.052;2024-03-25T05:30:48;5.82;;;5.18;;
47239;SDS011;32978;53.586;10.052;2024-03-25T05:35:45;7.20;;;5.60;;
47239;SDS011;32978;53.586;10.052;2024-03-25T05:40:40;8.90;;;5.10;;
47239;SDS011;32978;53.586;10.052;2024-03-25T05:45:36;11.50;;;6.15;;
47239;SDS011;32978;53.586;10.052;2024-03-25T05:50:31;7.43;;;5.75;;
47239;SDS011;32978;53.586;10.052;2024-03-25T05:55:27;6.15;;;5.10;;
47239;SDS011;32978;53.586;10.052;2024-03-25T06:00:24;7.18;;;5.63;;
47239;SDS011;32978;53.586;10.052;2024-03-25T06:05:19;9.02;;;6.78;;
47239;SDS011;32978;53.586;10.052;2024-03-25T06:10:15;7.35;;;6.75;;
47239;SDS011;32978;53.586;10.052;2024-03-25T06:15:10;7.50;;;6.90;;
47239;SDS011;32978;53.586;10.052;2024-03-25T06:20:06;9.82;;;8.02;;
47239;SDS011;32978;53.586;10.052;2024-03-25T06:25:03;8.05;;;7.10;;
47239;SDS011;32978;53.586;10.052;2024-03-25T06:29:59;8.55;;;6.80;;
47239;SDS011;32978;53.586;10.052;2024-03-25T06:35:14;10.80;;;6.93;;
47239;SDS011;32978;53.586;10.052;2024-03-25T06:40:10;8.63;;;6.70;;
47239;SDS011;32978;53.586;10.052;2024-03-25T06:45:06;9.30;;;5.97;;
47239;SDS011;32978;53.586;10.052;2024-03-25T06:50:01;8.65;;;6.30;;
47239;SDS011;32978;53.586;10.052;2024-03-25T06:54:57;11.70;;;6.93;;
47239;SDS011;32978;53.586;10.052;2024-03-25T06:59:53;8.50;;;6.22;;
47239;SDS011;32978;53.586;10.052;2024-03-25T07:04:48;6.78;;;5.55;;
47239;SDS011;32978;53.586;10.052;2024-03-25T07:09:44;5.68;;;5.18;;
47239;SDS011;32978;53.586;10.052;2024-03-25T07:14:39;7.28;;;4.80;;
47239;SDS011;32978;53.586;10.052;2024-03-25T07:19:35;10.65;;;5.40;;
47239;SDS011;32978;53.586;10.052;2024-03-25T07:24:31;10.50;;;6.25;;
47239;SDS011;32978;53.586;10.052;2024-03-25T07:29:26;8.48;;;5.60;;
47239;SDS011;32978;53.586;10.052;2024-03-25T07:34:22;5.82;;;5.18;;
47239;SDS011;32978;53.586;10.052;2024-03-25T07:39:17;10.57;;;5.13;;
47239;SDS011;32978;53.586;10.052;2024-03-25T07:44:13;8.48;;;5.22;;
47239;SDS011;32978;53.586;10.052;2024-03-25T07:49:08;8.88;;;5.43;;
47239;SDS011;32978;53.586;10.052;2024-03-25T07:54:04;10.05;;;5.55;;
47239;SDS011;32978;53.586;10.052;2024-03-25T07:58:59;9.65;;;6.25;;
47239;SDS011;32978;53.586;10.052;2024-03-25T08:03:56;7.97;;;5.95;;
47239;SDS011;32978;53.586;10.052;2024-03-25T08:08:51;8.30;;;5.57;;
47239;SDS011;32978;53.586;10.052;2024-03-25T08:13:47;9.30;;;5.80;;
47239;SDS011;32978;53.586;10.052;2024-03-25T08:18:42;12.88;;;6.15;;
47239;SDS011;32978;53.586;10.052;2024-03-25T08:23:38;7.75;;;6.22;;
47239;SDS011;32978;53.586;10.052;2024-03-25T08:28:33;12.88;;;5.78;;
47239;SDS011;32978;53.586;10.052;2024-03-25T08:33:29;10.60;;;6.53;;
47239;SDS011;32978;53.586;10.052;2024-03-25T08:38:24;12.20;;;6.38;;
47239;SDS011;32978;53.586;10.052;2024-03-25T08:43:20;9.30;;;5.82;;
47239;SDS011;32978;53.586;10.052;2024-03-25T08:48:16;14.20;;;6.03;;
47239;SDS011;32978;53.586;10.052;2024-03-25T08:53:12;10.88;;;6.97;;
47239;SDS011;32978;53.586;10.052;2024-03-25T08:58:07;10.10;;;6.53;;
47239;SDS011;32978;53.586;10.052;2024-03-25T09:03:03;13.50;;;6.35;;
47239;SDS011;32978;53.586;10.052;2024-03-25T09:07:59;11.13;;;6.18;;
47239;SDS011;32978;53.586;10.052;2024-03-25T09:12:55;6.22;;;5.53;;
47239;SDS011;32978;53.586;10.052;2024-03-25T09:17:51;10.35;;;6.72;;
47239;SDS011;32978;53.586;10.052;2024-03-25T09:22:47;17.27;;;6.88;;
47239;SDS011;32978;53.586;10.052;2024-03-25T09:27:48;10.23;;;7.32;;
47239;SDS011;32978;53.586;10.052;2024-03-25T09:32:44;8.10;;;7.25;;
47239;SDS011;32978;53.586;10.052;2024-03-25T09:37:40;8.32;;;7.30;;
47239;SDS011;32978;53.586;10.052;2024-03-25T09:42:40;8.93;;;6.20;;
47239;SDS011;32978;53.586;10.052;2024-03-25T09:47:43;9.23;;;7.00;;
47239;SDS011;32978;53.586;10.052;2024-03-25T09:52:41;10.88;;;7.15;;
47239;SDS011;32978;53.586;10.052;2024-03-25T09:57:36;11.25;;;7.03;;
47239;SDS011;32978;53.586;10.052;2024-03-25T10:02:33;9.82;;;7.47;;
47239;SDS011;32978;53.586;10.052;2024-03-25T10:07:31;8.48;;;6.82;;
47239;SDS011;32978;53.586;10.052;2024-03-25T10:12:27;10.45;;;7.45;;
47239;SDS011;32978;53.586;10.052;2024-03-25T10:17:23;9.77;;;7.20;;
47239;SDS011;32978;53.586;10.052;2024-03-25T10:22:19;10.65;;;7.38;;
47239;SDS011;32978;53.586;10.052;2024-03-25T10:27:18;9.25;;;6.95;;
47239;SDS011;32978;53.586;10.052;2024-03-25T10:32:15;8.73;;;6.70;;
47239;SDS011;32978;53.586;10.052;2024-03-25T10:37:11;13.75;;;7.18;;
47239;SDS011;32978;53.586;10.052;2024-03-25T10:42:07;10.98;;;6.95;;
47239;SDS011;32978;53.586;10.052;2024-03-25T10:47:08;9.38;;;6.82;;
47239;SDS011;32978;53.586;10.052;2024-03-25T10:52:06;11.55;;;7.50;;
47239;SDS011;32978;53.586;10.052;2024-03-25T10:57:04;13.95;;;7.45;;
47239;SDS011;32978;53.586;10.052;2024-03-25T11:02:01;10.38;;;8.88;;
47239;SDS011;32978;53.586;10.052;2024-03-25T11:07:06;13.48;;;7.70;;
47239;SDS011;32978;53.586;10.052;2024-03-25T11:12:11;9.98;;;7.88;;
47239;SDS011;32978;53.586;10.052;2024-03-25T11:17:16;12.65;;;7.97;;
47239;SDS011;32978;53.586;10.052;2024-03-25T11:22:12;11.65;;;7.50;;
47239;SDS011;32978;53.586;10.052;2024-03-25T11:27:08;10.07;;;7.07;;
47239;SDS011;32978;53.586;10.052;2024-03-25T11:32:04;10.63;;;7.68;;
47239;SDS011;32978;53.586;10.052;2024-03-25T11:37:00;12.20;;;7.63;;
47239;SDS011;32978;53.586;10.052;2024-03-25T11:41:57;10.57;;;6.90;;
47239;SDS011;32978;53.586;10.052;2024-03-25T11:46:52;7.80;;;6.70;;
47239;SDS011;32978;53.586;10.052;2024-03-25T11:51:50;7.13;;;6.47;;
47239;SDS011;32978;53.586;10.052;2024-03-25T11:56:46;11.10;;;6.60;;
47239;SDS011;32978;53.586;10.052;2024-03-25T12:01:42;11.93;;;6.40;;
47239;SDS011;32978;53.586;10.052;2024-03-25T12:06:37;11.80;;;5.47;;
47239;SDS011;32978;53.586;10.052;2024-03-25T12:11:33;14.00;;;7.75;;
47239;SDS011;32978;53.586;10.052;2024-03-25T12:16:29;12.93;;;6.97;;
47239;SDS011;32978;53.586;10.052;2024-03-25T12:21:24;6.63;;;5.70;;
47239;SDS011;32978;53.586;10.052;2024-03-25T12:26:21;8.93;;;5.78;;
47239;SDS011;32978;53.586;10.052;2024-03-25T12:31:16;6.25;;;5.65;;
47239;SDS011;32978;53.586;10.052;2024-03-25T12:36:12;11.00;;;6.40;;
47239;SDS011;32978;53.586;10.052;2024-03-25T12:41:08;6.72;;;5.80;;
47239;SDS011;32978;53.586;10.052;2024-03-25T12:46:06;10.07;;;6.03;;
47239;SDS011;32978;53.586;10.052;2024-03-25T12:51:01;9.85;;;6.03;;
47239;SDS011;32978;53.586;10.052;2024-03-25T12:55:57;6.50;;;5.40;;
47239;SDS011;32978;53.586;10.052;2024-03-25T13:00:52;7.15;;;5.50;;
47239;SDS011;32978;53.586;10.052;2024-03-25T13:05:48;7.68;;;6.10;;
47239;SDS011;32978;53.586;10.052;2024-03-25T13:10:44;8.65;;;6.22;;
47239;SDS011;32978;53.586;10.052;2024-03-25T13:15:39;8.15;;;5.97;;
47239;SDS011;32978;53.586;10.052;2024-03-25T13:20:35;10.57;;;6.20;;
47239;SDS011;32978;53.586;10.052;2024-03-25T13:25:30;8.27;;;5.40;;
47239;SDS011;32978;53.586;10.052;2024-03-25T13:30:28;14.10;;;6.55;;
47239;SDS011;32978;53.586;10.052;2024-03-25T13:35:26;7.90;;;6.63;;
47239;SDS011;32978;53.586;10.052;2024-03-25T13:40:22;10.20;;;6.07;;
47239;SDS011;32978;53.586;10.052;2024-03-25T13:45:17;9.15;;;5.47;;
47239;SDS011;32978;53.586;10.052;2024-03-25T13:50:13;10.23;;;6.35;;
47239;SDS011;32978;53.586;10.052;2024-03-25T13:55:09;8.70;;;5.22;;
47239;SDS011;32978;53.586;10.052;2024-03-25T14:00:04;7.78;;;6.13;;
47239;SDS011;32978;53.586;10.052;2024-03-25T14:05:03;6.93;;;5.10;;
47239;SDS011;32978;53.586;10.052;2024-03-25T14:10:00;7.82;;;5.60;;
47239;SDS011;32978;53.586;10.052;2024-03-25T14:14:55;11.35;;;5.80;;
47239;SDS011;32978;53.586;10.052;2024-03-25T14:19:53;9.50;;;5.22;;
47239;SDS011;32978;53.586;10.052;2024-03-25T14:24:49;11.27;;;6.25;;
47239;SDS011;32978;53.586;10.052;2024-03-25T14:29:45;6.78;;;5.50;;
47239;SDS011;32978;53.586;10.052;2024-03-25T14:34:40;7.43;;;5.80;;
47239;SDS011;32978;53.586;10.052;2024-03-25T14:39:36;9.55;;;5.80;;
47239;SDS011;32978;53.586;10.052;2024-03-25T14:44:32;9.50;;;5.50;;
47239;SDS011;32978;53.586;10.052;2024-03-25T14:49:27;6.38;;;5.45;;
47239;SDS011;32978;53.586;10.052;2024-03-25T14:54:23;6.32;;;5.07;;
47239;SDS011;32978;53.586;10.052;2024-03-25T14:59:18;6.57;;;5.00;;
47239;SDS011;32978;53.586;10.052;2024-03-25T15:04:14;6.43;;;5.70;;
47239;SDS011;32978;53.586;10.052;2024-03-25T15:09:09;9.43;;;4.80;;
47239;SDS011;32978;53.586;10.052;2024-03-25T15:14:05;5.57;;;4.63;;
47239;SDS011;32978;53.586;10.052;2024-03-25T15:19:00;9.75;;;5.20;;
47239;SDS011;32978;53.586;10.052;2024-03-25T15:23:56;8.38;;;5.70;;
47239;SDS011;32978;53.586;10.052;2024-03-25T15:28:52;5.65;;;4.85;;
47239;SDS011;32978;53.586;10.052;2024-03-25T15:33:48;5.75;;;4.95;;
47239;SDS011;32978;53.586;10.052;2024-03-25T15:38:43;8.05;;;5.65;;
47239;SDS011;32978;53.586;10.052;2024-03-25T15:43:39;8.48;;;5.15;;
47239;SDS011;32978;53.586;10.052;2024-03-25T15:48:35;7.93;;;5.65;;
47239;SDS011;32978;53.586;10.052;2024-03-25T15:53:31;9.90;;;6.13;;
47239;SDS011;32978;53.586;10.052;2024-03-25T15:58:26;9.20;;;5.00;;
47239;SDS011;32978;53.586;10.052;2024-03-25T16:03:22;8.50;;;5.32;;
47239;SDS011;32978;53.586;10.052;2024-03-25T16:08:18;6.20;;;5.40;;
47239;SDS011;32978;53.586;10.052;2024-03-25T16:13:13;6.80;;;5.00;;
47239;SDS011;32978;53.586;10.052;2024-03-25T16:18:10;9.13;;;4.40;;
47239;SDS011;32978;53.586;10.052;2024-03-25T16:23:05;6.18;;;4.57;;
47239;SDS011;32978;53.586;10.052;2024-03-25T16:28:01;5.28;;;4.25;;
47239;SDS011;32978;53.586;10.052;2024-03-25T16:32:57;8.13;;;4.25;;
47239;SDS011;32978;53.586;10.052;2024-03-25T16:37:53;10.15;;;4.72;;
47239;SDS011;32978;53.586;10.052;2024-03-25T16:42:48;4.97;;;4.30;;
47239;SDS011;32978;53.586;10.052;2024-03-25T16:47:44;4.78;;;4.32;;
47239;SDS011;32978;53.586;10.052;2024-03-25T16:52:39;9.10;;;4.78;;
47239;SDS011;32978;53.586;10.052;2024-03-25T16:57:35;6.38;;;4.35;;
47239;SDS011;32978;53.586;10.052;2024-03-25T17:02:30;5.72;;;4.60;;
47239;SDS011;32978;53.586;10.052;2024-03-25T17:07:26;7.70;;;4.50;;
47239;SDS011;32978;53.586;10.052;2024-03-25T17:12:22;7.03;;;5.15;;
47239;SDS011;32978;53.586;10.052;2024-03-25T17:17:17;5.68;;;4.82;;
47239;SDS011;32978;53.586;10.052;2024-03-25T17:22:13;11.98;;;5.72;;
47239;SDS011;32978;53.586;10.052;2024-03-25T17:27:08;10.63;;;4.88;;
47239;SDS011;32978;53.586;10.052;2024-03-25T17:32:04;7.18;;;5.00;;
47239;SDS011;32978;53.586;10.052;2024-03-25T17:36:59;8.57;;;5.53;;
47239;SDS011;32978;53.586;10.052;2024-03-25T17:41:55;8.38;;;5.43;;
47239;SDS011;32978;53.586;10.052;2024-03-25T17:46:52;7.47;;;5.30;;
47239;SDS011;32978;53.586;10.052;2024-03-25T17:51:48;6.10;;;5.50;;
47239;SDS011;32978;53.586;10.052;2024-03-25T17:56:44;6.55;;;5.05;;
47239;SDS011;32978;53.586;10.052;2024-03-25T18:01:40;10.02;;;5.43;;
47239;SDS011;32978;53.586;10.052;2024-03-25T18:06:35;11.80;;;6.03;;
47239;SDS011;32978;53.586;10.052;2024-03-25T18:11:31;8.95;;;6.07;;
47239;SDS011;32978;53.586;10.052;2024-03-25T18:16:26;14.32;;;6.03;;
47239;SDS011;32978;53.586;10.052;2024-03-25T18:21:22;9.57;;;5.78;;
47239;SDS011;32978;53.586;10.052;2024-03-25T18:26:17;10.63;;;5.45;;
47239;SDS011;32978;53.586;10.052;2024-03-25T18:31:13;8.82;;;6.22;;
47239;SDS011;32978;53.586;10.052;2024-03-25T18:36:09;12.07;;;6.60;;
47239;SDS011;32978;53.586;10.052;2024-03-25T18:41:04;11.23;;;6.55;;
47239;SDS011;32978;53.586;10.052;2024-03-25T18:46:00;10.48;;;6.53;;
47239;SDS011;32978;53.586;10.052;2024-03-25T18:50:56;10.45;;;6.82;;
47239;SDS011;32978;53.586;10.052;2024-03-25T18:55:51;12.30;;;7.10;;
47239;SDS011;32978;53.586;10.052;2024-03-25T19:00:47;14.15;;;6.72;;
47239;SDS011;32978;53.586;10.052;2024-03-25T19:05:42;10.25;;;5.78;;
47239;SDS011;32978;53.586;10.052;2024-03-25T19:10:38;8.68;;;6.28;;
47239;SDS011;32978;53.586;10.052;2024-03-25T19:15:33;8.02;;;6.40;;
47239;SDS011;32978;53.586;10.052;2024-03-25T19:20:30;8.88;;;6.28;;
47239;SDS011;32978;53.586;10.052;2024-03-25T19:25:26;9.73;;;7.13;;
47239;SDS011;32978;53.586;10.052;2024-03-25T19:30:25;11.98;;;7.20;;
47239;SDS011;32978;53.586;10.052;2024-03-25T19:35:20;13.27;;;7.80;;
47239;SDS011;32978;53.586;10.052;2024-03-25T19:40:16;14.05;;;7.45;;
47239;SDS011;32978;53.586;10.052;2024-03-25T19:45:11;10.38;;;8.05;;
47239;SDS011;32978;53.586;10.052;2024-03-25T19:50:07;11.77;;;8.00;;
47239;SDS011;32978;53.586;10.052;2024-03-25T19:55:03;19.10;;;8.77;;
47239;SDS011;32978;53.586;10.052;2024-03-25T19:59:59;13.18;;;8.10;;
47239;SDS011;32978;53.586;10.052;2024-03-25T20:04:55;12.90;;;7.82;;
47239;SDS011;32978;53.586;10.052;2024-03-25T20:09:51;13.70;;;8.90;;
47239;SDS011;32978;53.586;10.052;2024-03-25T20:14:46;15.18;;;8.90;;
47239;SDS011;32978;53.586;10.052;2024-03-25T20:19:42;15.00;;;8.52;;
47239;SDS011;32978;53.586;10.052;2024-03-25T20:24:37;14.90;;;8.00;;
47239;SDS011;32978;53.586;10.052;2024-03-25T20:29:33;14.15;;;9.23;;
47239;SDS011;32978;53.586;10.052;2024-03-25T20:34:28;19.98;;;10.00;;
47239;SDS011;32978;53.586;10.052;2024-03-25T20:39:24;24.88;;;11.40;;
47239;SDS011;32978;53.586;10.052;2024-03-25T20:44:20;17.73;;;11.75;;
47239;SDS011;32978;53.586;10.052;2024-03-25T20:49:15;20.75;;;13.23;;
47239;SDS011;32978;53.586;10.052;2024-03-25T20:54:11;22.05;;;13.10;;
47239;SDS011;32978;53.586;10.052;2024-03-25T20:59:07;20.92;;;12.25;;
47239;SDS011;32978;53.586;10.052;2024-03-25T21:04:03;16.50;;;11.90;;
47239;SDS011;32978;53.586;10.052;2024-03-25T21:08:58;22.15;;;12.02;;
47239;SDS011;32978;53.586;10.052;2024-03-25T21:13:54;15.85;;;11.57;;
47239;SDS011;32978;53.586;10.052;2024-03-25T21:18:49;21.30;;;12.80;;
47239;SDS011;32978;53.586;10.052;2024-03-25T21:23:45;24.48;;;13.38;;
47239;SDS011;32978;53.586;10.052;2024-03-25T21:28:41;18.80;;;13.25;;
47239;SDS011;32978;53.586;10.052;2024-03-25T21:33:37;23.42;;;12.95;;
47239;SDS011;32978;53.586;10.052;2024-03-25T21:38:32;20.73;;;12.00;;
47239;SDS011;32978;53.586;10.052;2024-03-25T21:43:28;15.35;;;10.15;;
47239;SDS011;32978;53.586;10.052;2024-03-25T21:48:24;14.15;;;9.85;;
47239;SDS011;32978;53.586;10.052;2024-03-25T21:53:19;13.18;;;10.15;;
47239;SDS011;32978;53.586;10.052;2024-03-25T21:58:15;19.27;;;10.05;;
47239;SDS011;32978;53.586;10.052;2024-03-25T22:03:10;12.00;;;9.13;;
47239;SDS011;32978;53.586;10.052;2024-03-25T22:08:06;13.13;;;9.20;;
47239;SDS011;32978;53.586;10.052;2024-03-25T22:13:02;18.58;;;10.23;;
47239;SDS011;32978;53.586;10.052;2024-03-25T22:17:59;12.13;;;9.85;;
47239;SDS011;32978;53.586;10.052;2024-03-25T22:22:54;14.30;;;10.40;;
47239;SDS011;32978;53.586;10.052;2024-03-25T22:27:50;15.02;;;10.00;;
47239;SDS011;32978;53.586;10.052;2024-03-25T22:32:49;18.35;;;10.30;;
47239;SDS011;32978;53.586;10.052;2024-03-25T22:37:46;22.23;;;10.98;;
47239;SDS011;32978;53.586;10.052;2024-03-25T22:42:41;14.75;;;9.63;;
47239;SDS011;32978;53.586;10.052;2024-03-25T22:47:37;14.40;;;9.82;;
47239;SDS011;32978;53.586;10.052;2024-03-25T22:52:33;14.00;;;9.07;;
47239;SDS011;32978;53.586;10.052;2024-03-25T22:57:29;14.45;;;9.00;;
47239;SDS011;32978;53.586;10.052;2024-03-25T23:02:24;12.60;;;9.40;;
47239;SDS011;32978;53.586;10.052;2024-03-25T23:07:20;10.05;;;8.52;;
47239;SDS011;32978;53.586;10.052;2024-03-25T23:12:15;12.52;;;8.60;;
47239;SDS011;32978;53.586;10.052;2024-03-25T23:17:11;11.77;;;7.93;;
47239;SDS011;32978;53.586;10.052;2024-03-25T23:22:06;14.10;;;8.60;;
47239;SDS011;32978;53.586;10.052;2024-03-25T23:27:02;11.00;;;8.35;;
47239;SDS011;32978;53.586;10.052;2024-03-25T23:31:58;14.98;;;8.65;;
47239;SDS011;32978;53.586;10.052;2024-03-25T23:36:54;12.38;;;8.15;;
47239;SDS011;32978;53.586;10.052;2024-03-25T23:41:49;18.90;;;9.18;;
47239;SDS011;32978;53.586;10.052;2024-03-25T23:46:45;12.57;;;7.65;;
47239;SDS011;32978;53.586;10.052;2024-03-25T23:51:40;11.38;;;7.95;;
47239;SDS011;32978;53.586;10.052;2024-03-25T23:56:36;11.68;;;8.57;;
